Time;durP1;ratioP1;P1;durP2;ratioP2;P2;SDS_P1;SDS_P2;PMS_P1;PMS_P2;Temp;Humidity;BMP_temperature;BMP_pressure;BME280_temperature;BME280_humidity;BME280_pressure;Samples;Min_cycle;Max_cycle;Signal;HPM_P1;HPM_P2
2021/10/31 00:01:37;;;;;;;9.70;2.00;;;;;;;18.96;84.51;99503.13;4984336;28;20133;-58
2021/10/31 00:04:05;;;;;;;23.85;3.25;;;;;;;19.02;84.23;99532.78;4987831;28;20149;-58
2021/10/31 00:06:32;;;;;;;8.60;2.33;;;;;;;19.07;84.32;99535.34;4982175;28;20105;-58
2021/10/31 00:08:58;;;;;;;15.55;2.00;;;;;;;19.09;84.31;99538.66;4988382;28;20126;-58
2021/10/31 00:11:25;;;;;;;17.58;2.95;;;;;;;19.04;84.19;99540.91;4978487;28;20137;-57
2021/10/31 00:13:52;;;;;;;17.50;2.78;;;;;;;18.96;84.15;99531.41;4987964;28;20129;-57
2021/10/31 00:16:19;;;;;;;11.20;2.03;;;;;;;19.11;84.07;99572.22;4979001;28;20054;-58
2021/10/31 00:18:46;;;;;;;15.77;2.45;;;;;;;19.06;84.06;99550.69;4979429;28;20111;-59
2021/10/31 00:21:13;;;;;;;11.07;2.03;;;;;;;19.01;84.35;99547.28;4981839;28;20188;-58
2021/10/31 00:23:40;;;;;;;5.97;1.27;;;;;;;19.07;84.08;99549.50;4990702;28;20145;-59
2021/10/31 00:26:06;;;;;;;4.00;1.95;;;;;;;19.01;84.03;99536.81;4989597;28;20074;-58
2021/10/31 00:28:33;;;;;;;6.43;1.85;;;;;;;18.91;84.28;99531.69;4988312;28;20141;-58
2021/10/31 00:31:00;;;;;;;6.32;1.20;;;;;;;18.87;84.27;99536.41;4992940;28;20066;-59
2021/10/31 00:33:28;;;;;;;11.35;2.05;;;;;;;18.91;84.16;99552.31;4990623;28;20486;-59
2021/10/31 00:35:55;;;;;;;10.57;2.42;;;;;;;18.93;84.20;99557.59;4992241;28;20078;-64
2021/10/31 00:38:22;;;;;;;16.42;1.65;;;;;;;18.93;84.30;99558.41;4990410;28;20074;-61
2021/10/31 00:40:49;;;;;;;10.85;1.60;;;;;;;18.81;84.08;99558.47;4987998;28;20543;-62
2021/10/31 00:43:17;;;;;;;12.40;2.30;;;;;;;18.76;83.96;99526.78;4991172;28;20070;-61
2021/10/31 00:45:43;;;;;;;6.78;2.08;;;;;;;18.83;84.28;99556.09;4991431;28;20078;-64
2021/10/31 00:48:11;;;;;;;14.02;2.22;;;;;;;18.91;84.40;99571.28;4989709;28;20450;-64
2021/10/31 00:50:38;;;;;;;11.68;1.88;;;;;;;18.89;84.28;99568.81;4987277;28;20081;-62
2021/10/31 00:53:06;;;;;;;10.35;1.48;;;;;;;18.75;84.20;99530.81;4990872;28;20149;-62
2021/10/31 00:55:33;;;;;;;9.13;1.92;;;;;;;18.93;84.27;99569.72;4992900;28;20506;-60
2021/10/31 00:58:01;;;;;;;13.07;2.38;;;;;;;18.88;84.26;99557.88;4989590;28;20161;-60
2021/10/31 01:00:27;;;;;;;10.70;2.38;;;;;;;18.95;84.25;99577.88;4987561;28;20085;-62
2021/10/31 01:02:55;;;;;;;31.38;4.22;;;;;;;18.90;84.19;99566.78;4987604;28;20605;-60
2021/10/31 01:05:32;;;;;;;9.48;1.77;;;;;;;18.91;84.31;99579.78;4990881;28;20528;-60
2021/10/31 01:08:29;;;;;;;5.22;1.63;;;;;;;18.91;84.31;99593.94;4989291;28;20544;-59
2021/10/31 01:11:08;;;;;;;6.03;1.27;;;;;;;18.88;84.27;99594.63;4988528;28;20043;-60
2021/10/31 01:13:47;;;;;;;12.73;2.22;;;;;;;18.88;84.16;99586.97;4981727;28;20165;-59
2021/10/31 01:16:38;;;;;;;19.90;2.55;;;;;;;18.83;84.45;99594.88;4989488;28;20050;-60
2021/10/31 01:19:08;;;;;;;15.82;2.63;;;;;;;18.86;84.27;99605.47;4990242;28;20138;-60
2021/10/31 01:21:35;;;;;;;;;;;;;;;18.80;84.46;99615.41;4991547;28;20074;-58
2021/10/31 01:24:23;;;;;;;16.88;2.17;;;;;;;18.80;84.31;99615.41;4990493;28;20433;-59
2021/10/31 01:26:54;;;;;;;15.63;2.33;;;;;;;18.82;84.41;99610.22;4986565;28;20046;-60
2021/10/31 01:29:38;;;;;;;17.15;2.05;;;;;;;18.85;84.43;99620.81;4990785;28;20396;-59
2021/10/31 01:32:08;;;;;;;14.20;2.13;;;;;;;18.83;84.49;99626.00;4981609;28;20078;-61
2021/10/31 01:34:55;;;;;;;14.98;1.75;;;;;;;18.87;84.37;99627.78;4988572;28;20174;-60
2021/10/31 01:37:41;;;;;;;13.55;1.73;;;;;;;18.88;84.59;99635.06;4989490;28;20489;-61
2021/10/31 01:40:13;;;;;;;14.55;2.50;;;;;;;18.91;84.30;99642.00;4998119;28;20133;-60
2021/10/31 01:43:02;;;;;;;10.35;2.70;;;;;;;18.91;84.32;99623.03;4988229;28;20129;-59
2021/10/31 01:46:01;;;;;;;12.25;2.20;;;;;;;18.96;84.24;99638.91;4987315;28;20139;-60
2021/10/31 01:48:33;;;;;;;11.07;2.20;;;;;;;19.04;84.09;99640.78;4982334;28;20054;-59
2021/10/31 01:51:05;;;;;;;15.57;2.60;;;;;;;19.04;83.83;99628.63;4992629;28;20078;-59
2021/10/31 01:53:36;;;;;;;24.02;2.78;;;;;;;19.07;83.86;99625.91;4986669;28;20078;-62
2021/10/31 01:56:17;;;;;;;17.35;3.22;;;;;;;19.16;83.67;99640.72;4986603;28;20570;-63
2021/10/31 01:58:59;;;;;;;15.13;2.63;;;;;;;19.15;83.57;99630.59;4976955;28;20077;-63
2021/10/31 02:01:29;;;;;;;16.75;3.33;;;;;;;19.23;83.58;99636.47;4986968;28;20109;-66
2021/10/31 02:04:00;;;;;;;11.93;2.05;;;;;;;19.17;83.87;99628.22;4985474;28;20070;-64
2021/10/31 02:06:30;;;;;;;9.75;1.50;;;;;;;19.22;83.90;99644.13;4989043;28;20137;-62
2021/10/31 02:08:59;;;;;;;8.32;1.92;;;;;;;19.25;83.71;99639.72;4988975;28;20145;-63
2021/10/31 02:11:28;;;;;;;9.48;2.65;;;;;;;19.27;83.47;99631.72;4990720;28;20077;-61
2021/10/31 02:13:58;;;;;;;14.90;2.40;;;;;;;19.31;83.46;99624.97;4992504;28;20070;-63
2021/10/31 02:16:26;;;;;;;18.60;4.10;;;;;;;19.29;83.56;99618.03;4980990;28;20053;-62
2021/10/31 02:18:57;;;;;;;10.15;2.42;;;;;;;19.37;83.48;99617.03;4989301;28;20069;-63
2021/10/31 02:21:26;;;;;;;30.45;3.35;;;;;;;19.29;83.52;99601.03;4991032;28;20623;-64
2021/10/31 02:23:57;;;;;;;;;;;;;;;19.35;83.50;99614.56;4979856;28;20129;-63
2021/10/31 02:26:24;;;;;;;17.15;3.80;;;;;;;19.41;83.32;99624.44;4986940;28;19922;-62
2021/10/31 02:28:58;;;;;;;12.27;2.38;;;;;;;19.17;83.43;99579.28;4986814;28;20173;-62
2021/10/31 02:31:27;;;;;;;14.52;1.65;;;;;;;19.27;83.49;99609.88;4990213;28;20475;-64
2021/10/31 02:33:57;;;;;;;9.15;2.88;;;;;;;19.20;83.87;99606.03;4987615;28;20100;-62
2021/10/31 02:36:24;;;;;;;10.43;2.20;;;;;;;19.06;84.04;99590.31;4989368;28;20080;-63
2021/10/31 02:38:51;;;;;;;13.80;2.05;;;;;;;19.03;84.32;99605.16;4986127;28;20141;-61
2021/10/31 02:41:18;;;;;;;12.40;1.77;;;;;;;19.00;84.40;99600.22;4989331;28;20490;-67
2021/10/31 02:43:46;;;;;;;16.23;2.15;;;;;;;18.98;84.45;99582.81;4978895;28;20081;-64
2021/10/31 02:46:14;;;;;;;15.70;2.22;;;;;;;18.94;84.43;99594.03;4987876;28;20129;-63
2021/10/31 02:48:41;;;;;;;7.07;1.50;;;;;;;18.91;84.59;99596.75;4991312;28;20054;-63
2021/10/31 02:51:17;;;;;;;13.50;1.45;;;;;;;18.90;84.74;99590.25;4992310;28;20133;-63
2021/10/31 02:53:47;;;;;;;13.93;1.40;;;;;;;18.82;85.30;99576.28;4980166;28;20432;-61
2021/10/31 02:56:25;;;;;;;12.27;2.13;;;;;;;18.83;84.88;99573.06;4987458;28;20141;-60
2021/10/31 02:59:08;;;;;;;4.28;1.30;;;;;;;18.89;84.93;99576.47;4984203;28;20133;-61
2021/10/31 03:01:35;;;;;;;3.15;1.27;;;;;;;18.92;84.75;99598.38;4988345;28;20046;-60
2021/10/31 03:04:04;;;;;;;1.85;0.65;;;;;;;18.92;84.83;99592.72;4990884;28;20137;-61
2021/10/31 03:06:30;;;;;;;18.85;2.20;;;;;;;18.84;85.04;99594.53;4991246;28;20078;-60
2021/10/31 03:08:57;;;;;;;12.82;1.90;;;;;;;18.85;84.92;99592.53;4990294;28;20112;-60
2021/10/31 03:11:26;;;;;;;15.10;2.08;;;;;;;18.87;84.96;99588.16;4979813;28;20100;-60
2021/10/31 03:13:53;;;;;;;11.27;2.42;;;;;;;18.84;85.00;99585.22;4987575;28;20297;-60
2021/10/31 03:16:20;;;;;;;17.33;2.70;;;;;;;18.76;85.14;99589.03;4988301;28;20089;-59
2021/10/31 03:18:47;;;;;;;19.60;1.98;;;;;;;18.88;85.28;99603.13;4989031;28;20038;-60
2021/10/31 03:21:14;;;;;;;4.18;1.20;;;;;;;18.85;85.48;99595.34;4990528;28;20562;-59
2021/10/31 03:23:40;;;;;;;24.77;3.55;;;;;;;18.77;85.26;99593.47;4986285;28;20046;-58
2021/10/31 03:26:07;;;;;;;16.52;1.88;;;;;;;18.67;85.05;99573.00;4979524;28;20454;-61
2021/10/31 03:28:34;;;;;;;16.67;3.40;;;;;;;18.92;85.09;99589.91;4989648;28;20141;-60
2021/10/31 03:31:01;;;;;;;8.07;1.75;;;;;;;18.78;85.31;99570.50;4986509;28;20129;-61
2021/10/31 03:33:29;;;;;;;10.65;1.98;;;;;;;18.79;85.05;99566.50;4989685;28;20079;-61
2021/10/31 03:35:57;;;;;;;19.30;3.08;;;;;;;18.91;85.20;99597.56;4989949;28;20085;-61
2021/10/31 03:38:25;;;;;;;15.70;2.08;;;;;;;18.98;85.30;99602.63;4984751;28;20084;-61
2021/10/31 03:40:52;;;;;;;11.32;2.15;;;;;;;19.05;85.17;99590.69;4983236;28;20047;-61
2021/10/31 03:43:21;;;;;;;3.92;1.50;;;;;;;19.03;85.06;99588.19;4982983;28;20057;-60
2021/10/31 03:45:50;;;;;;;10.98;2.85;;;;;;;19.05;85.08;99590.69;4983570;28;20129;-62
2021/10/31 03:48:18;;;;;;;13.95;3.30;;;;;;;18.98;85.16;99591.28;4984965;28;20043;-61
2021/10/31 03:50:45;;;;;;;12.00;2.03;;;;;;;19.02;85.20;99608.38;4980901;28;20604;-61
2021/10/31 03:53:12;;;;;;;13.23;2.33;;;;;;;19.00;85.25;99600.22;4985812;28;20478;-61
2021/10/31 03:55:39;;;;;;;10.18;1.58;;;;;;;19.01;85.16;99603.88;4989490;28;20082;-61
2021/10/31 03:58:06;;;;;;;13.77;1.77;;;;;;;19.02;85.11;99614.03;4987452;28;20062;-61
2021/10/31 04:00:33;;;;;;;6.07;1.17;;;;;;;18.96;85.33;99604.97;4987120;28;20097;-61
2021/10/31 04:03:00;;;;;;;16.05;1.73;;;;;;;18.95;85.19;99606.16;4993986;28;20038;-61
2021/10/31 04:05:27;;;;;;;5.45;1.75;;;;;;;18.85;85.29;99601.84;4988457;28;20141;-60
2021/10/31 04:07:55;;;;;;;20.95;1.88;;;;;;;18.88;85.20;99603.13;4986032;28;20569;-60
2021/10/31 04:10:22;;;;;;;17.05;2.47;;;;;;;18.92;85.52;99616.19;4992756;28;20479;-61
2021/10/31 04:12:50;;;;;;;15.20;2.33;;;;;;;18.83;85.43;99604.19;4990354;28;20070;-61
2021/10/31 04:15:19;;;;;;;12.75;2.88;;;;;;;18.67;85.77;99575.00;4988306;28;20133;-60
2021/10/31 04:17:46;;;;;;;25.08;3.00;;;;;;;19.02;85.54;99631.81;4992971;28;20117;-60
2021/10/31 04:20:13;;;;;;;15.55;1.73;;;;;;;18.99;85.64;99618.41;4985094;28;20097;-63
2021/10/31 04:22:40;;;;;;;15.32;2.30;;;;;;;18.99;85.60;99638.19;4989914;28;20591;-63
2021/10/31 04:25:08;;;;;;;6.60;1.90;;;;;;;18.88;85.65;99629.41;4990745;28;20431;-63
2021/10/31 04:27:35;;;;;;;15.45;2.53;;;;;;;19.02;85.12;99625.34;4991362;28;20074;-64
2021/10/31 04:30:04;;;;;;;13.90;3.60;;;;;;;19.10;85.13;99644.16;4986817;28;20089;-64
2021/10/31 04:32:31;;;;;;;14.97;3.83;;;;;;;19.10;85.02;99645.00;4992050;28;20042;-63
2021/10/31 04:34:58;;;;;;;27.85;3.75;;;;;;;19.10;85.31;99666.81;4993868;28;20069;-61
2021/10/31 04:37:26;;;;;;;15.48;3.58;;;;;;;19.06;85.34;99652.56;4986062;28;20078;-63
2021/10/31 04:39:53;;;;;;;13.93;2.80;;;;;;;18.98;85.07;99659.19;4988094;28;20477;-63
2021/10/31 04:42:20;;;;;;;20.73;3.38;;;;;;;18.99;85.15;99643.88;4992143;28;20050;-64
2021/10/31 04:44:47;;;;;;;15.50;3.45;;;;;;;19.10;85.30;99664.78;4988880;28;21338;-64
2021/10/31 04:47:14;;;;;;;22.80;3.05;;;;;;;19.08;84.97;99658.69;4990426;28;20137;-65
2021/10/31 04:49:41;;;;;;;19.30;5.05;;;;;;;19.14;85.18;99674.25;4991474;28;20482;-64
2021/10/31 04:52:08;;;;;;;30.08;4.45;;;;;;;19.11;85.61;99660.81;4992305;28;20074;-62
2021/10/31 04:54:35;;;;;;;18.45;4.32;;;;;;;19.04;85.29;99656.91;4989541;28;20129;-60
2021/10/31 04:57:02;;;;;;;37.83;4.95;;;;;;;19.16;85.15;99683.19;4991228;28;20050;-60
2021/10/31 04:59:29;;;;;;;22.60;3.28;;;;;;;19.18;85.25;99685.66;4990906;28;20521;-61
2021/10/31 05:01:56;;;;;;;34.65;4.22;;;;;;;18.99;85.02;99652.34;4991110;28;20137;-61
2021/10/31 05:04:22;;;;;;;32.00;4.20;;;;;;;19.13;85.29;99675.41;4988897;28;20046;-61
2021/10/31 05:06:49;;;;;;;27.63;4.40;;;;;;;19.26;84.95;99693.16;4984088;28;20129;-61
2021/10/31 05:09:17;;;;;;;25.58;4.80;;;;;;;19.25;84.85;99679.34;4993839;28;20588;-62
2021/10/31 05:11:44;;;;;;;30.63;6.75;;;;;;;19.21;84.92;99669.94;4989811;28;20383;-61
2021/10/31 05:14:11;;;;;;;24.13;5.72;;;;;;;19.20;84.76;99662.66;4991070;28;20043;-62
2021/10/31 05:16:38;;;;;;;44.72;7.40;;;;;;;19.40;84.81;99698.41;4987855;28;20072;-62
2021/10/31 05:19:08;;;;;;;25.88;4.82;;;;;;;19.38;85.03;99684.63;4990388;28;20133;-62
2021/10/31 05:21:35;;;;;;;35.85;5.03;;;;;;;19.38;85.10;99680.94;4991939;28;20053;-62
2021/10/31 05:24:02;;;;;;;41.65;6.22;;;;;;;19.43;84.93;99689.19;4988066;28;20068;-61
2021/10/31 05:26:29;;;;;;;31.23;5.28;;;;;;;19.44;84.96;99690.03;4990777;28;20469;-62
2021/10/31 05:28:56;;;;;;;34.30;5.10;;;;;;;19.44;84.87;99673.84;4990724;28;20093;-60
2021/10/31 05:31:24;;;;;;;31.88;4.68;;;;;;;19.52;84.88;99684.22;4991788;28;22076;-59
2021/10/31 05:33:52;;;;;;;31.60;5.93;;;;;;;19.58;84.95;99677.06;4986602;28;20065;-58
2021/10/31 05:36:20;;;;;;;38.78;5.20;;;;;;;19.53;84.99;99680.19;4989253;28;20085;-64
2021/10/31 05:38:47;;;;;;;34.30;5.18;;;;;;;19.56;85.00;99678.66;4985303;28;20473;-61
2021/10/31 05:41:15;;;;;;;52.97;8.20;;;;;;;19.42;84.76;99656.41;4993353;28;20046;-58
2021/10/31 05:43:43;;;;;;;30.85;5.45;;;;;;;19.52;85.01;99666.38;4991478;28;20181;-57
2021/10/31 05:46:10;;;;;;;44.45;6.63;;;;;;;19.65;84.78;99688.63;4988297;28;20149;-59
2021/10/31 05:48:37;;;;;;;39.80;5.55;;;;;;;19.58;85.16;99677.06;4989525;28;20093;-59
2021/10/31 05:51:04;;;;;;;41.17;6.45;;;;;;;19.58;85.09;99685.56;4991029;28;20121;-59
2021/10/31 05:53:31;;;;;;;28.80;5.18;;;;;;;19.60;85.04;99665.41;4993305;28;20130;-59
2021/10/31 05:55:58;;;;;;;42.05;7.90;;;;;;;19.65;84.83;99677.28;4988431;28;20502;-61
2021/10/31 05:58:25;;;;;;;34.17;5.07;;;;;;;19.57;84.90;99654.78;4990305;28;20062;-61
2021/10/31 06:00:52;;;;;;;40.15;7.03;;;;;;;19.59;84.77;99670.25;4989623;28;20590;-62
2021/10/31 06:03:20;;;;;;;30.55;6.20;;;;;;;19.63;85.11;99656.22;4992167;28;20046;-60
2021/10/31 06:05:47;;;;;;;32.22;5.95;;;;;;;19.64;84.97;99672.00;4991319;28;20043;-60
2021/10/31 06:08:15;;;;;;;24.25;4.57;;;;;;;19.61;85.06;99661.38;4990990;28;20137;-61
2021/10/31 06:10:43;;;;;;;30.75;6.45;;;;;;;19.57;85.02;99658.44;4987787;28;20136;-58
2021/10/31 06:13:10;;;;;;;43.30;6.80;;;;;;;19.55;85.25;99649.47;4990982;28;20165;-58
2021/10/31 06:15:37;;;;;;;16.48;3.88;;;;;;;19.38;85.84;99655.47;4983527;28;20070;-57
2021/10/31 06:18:05;;;;;;;35.15;6.20;;;;;;;19.33;85.46;99658.59;4983988;28;20046;-57
2021/10/31 06:20:32;;;;;;;32.45;4.63;;;;;;;19.22;85.90;99654.63;4990314;28;20137;-58
2021/10/31 06:22:59;;;;;;;50.67;7.63;;;;;;;18.97;85.85;99620.75;4991007;28;20466;-58
2021/10/31 06:25:26;;;;;;;51.67;7.28;;;;;;;19.16;85.93;99642.72;4988541;28;20058;-59
2021/10/31 06:27:53;;;;;;;39.05;6.28;;;;;;;19.17;86.35;99665.00;4988003;28;20089;-57
2021/10/31 06:30:20;;;;;;;36.47;5.07;;;;;;;19.20;86.33;99648.50;4987227;28;20077;-58
2021/10/31 06:32:47;;;;;;;39.30;6.88;;;;;;;19.20;86.59;99657.00;4985892;28;20471;-59
2021/10/31 06:35:14;;;;;;;31.38;6.30;;;;;;;19.17;86.54;99684.00;4989655;28;20133;-60
2021/10/31 06:37:41;;;;;;;33.00;7.07;;;;;;;19.25;86.35;99662.38;4986806;28;20065;-59
2021/10/31 06:40:09;;;;;;;28.55;7.47;;;;;;;19.19;86.40;99639.19;4989441;28;20070;-59
2021/10/31 06:42:35;;;;;;;44.60;7.78;;;;;;;19.07;86.27;99617.41;4986686;28;20138;-60
2021/10/31 06:45:03;;;;;;;48.85;6.90;;;;;;;19.18;86.22;99629.88;4988920;28;20134;-59
2021/10/31 06:47:30;;;;;;;45.78;7.70;;;;;;;19.10;86.33;99630.84;4990881;28;20145;-59
2021/10/31 06:49:58;;;;;;;31.85;5.35;;;;;;;19.21;86.05;99661.44;4989224;28;20104;-60
2021/10/31 06:52:26;;;;;;;27.10;4.82;;;;;;;19.21;86.17;99665.09;4981216;28;20255;-60
2021/10/31 06:54:53;;;;;;;33.78;6.82;;;;;;;19.22;86.29;99663.94;4983303;28;20133;-59
2021/10/31 06:57:20;;;;;;;55.00;6.55;;;;;;;19.27;86.01;99643.03;4974861;28;20066;-64
2021/10/31 06:59:47;;;;;;;29.13;5.53;;;;;;;19.28;86.03;99647.50;4982996;28;20133;-60
2021/10/31 07:02:14;;;;;;;38.22;7.88;;;;;;;19.24;86.27;99660.72;4990718;28;20049;-60
2021/10/31 07:04:41;;;;;;;38.60;7.28;;;;;;;19.28;86.08;99650.34;4990878;28;20050;-60
2021/10/31 07:07:09;;;;;;;37.00;5.85;;;;;;;19.31;85.95;99660.94;4986266;28;20462;-58
2021/10/31 07:09:35;;;;;;;38.17;7.10;;;;;;;19.30;85.73;99662.13;4984470;28;20142;-58
2021/10/31 07:12:02;;;;;;;39.83;6.15;;;;;;;19.28;85.61;99662.50;4975620;28;20090;-59
2021/10/31 07:14:29;;;;;;;54.35;7.55;;;;;;;19.35;85.63;99670.34;4980810;28;20043;-58
2021/10/31 07:16:56;;;;;;;46.67;5.38;;;;;;;19.32;85.50;99651.28;4984946;28;20513;-60
2021/10/31 07:19:23;;;;;;;44.45;6.43;;;;;;;19.40;85.58;99665.25;4989462;28;20426;-59
2021/10/31 07:21:50;;;;;;;31.92;6.68;;;;;;;19.36;85.65;99664.34;4990005;28;20081;-59
2021/10/31 07:24:17;;;;;;;39.80;8.35;;;;;;;19.28;85.76;99639.00;4989400;28;20154;-59
2021/10/31 07:26:44;;;;;;;23.63;5.32;;;;;;;19.25;85.90;99656.72;4986346;28;20050;-59
2021/10/31 07:29:11;;;;;;;25.58;5.00;;;;;;;19.16;86.28;99659.72;4988491;28;20081;-60
2021/10/31 07:31:40;;;;;;;39.33;9.23;;;;;;;19.13;86.19;99655.59;4988054;28;20148;-60
2021/10/31 07:34:11;;;;;;;32.00;7.07;;;;;;;19.14;86.42;99662.06;4989574;28;20046;-59
2021/10/31 07:36:40;;;;;;;29.83;5.38;;;;;;;19.18;86.32;99661.00;4986954;28;20129;-60
2021/10/31 07:39:09;;;;;;;37.08;6.93;;;;;;;19.22;85.94;99675.25;4986242;28;20145;-59
2021/10/31 07:41:37;;;;;;;20.73;4.90;;;;;;;19.25;86.17;99671.72;4979614;28;20050;-62
2021/10/31 07:44:05;;;;;;;23.63;5.80;;;;;;;19.26;86.07;99666.88;4985463;28;20133;-59
2021/10/31 07:46:33;;;;;;;25.42;5.80;;;;;;;19.26;86.24;99686.69;4990158;28;20080;-60
2021/10/31 07:49:01;;;;;;;25.45;4.25;;;;;;;19.23;86.01;99698.72;4992017;28;20109;-60
2021/10/31 07:51:29;;;;;;;28.88;5.10;;;;;;;19.30;86.15;99690.44;4991463;28;20078;-59
2021/10/31 07:53:56;;;;;;;46.50;6.97;;;;;;;19.31;86.14;99683.59;4983201;28;20150;-59
2021/10/31 07:56:26;;;;;;;30.60;5.60;;;;;;;19.35;86.05;99691.00;4983664;28;20133;-59
2021/10/31 07:58:56;;;;;;;29.10;5.97;;;;;;;19.23;86.66;99693.06;4989807;28;20141;-59
2021/10/31 08:01:24;;;;;;;25.63;5.22;;;;;;;19.32;86.19;99686.06;4989857;28;20129;-57
2021/10/31 08:03:55;;;;;;;20.90;3.65;;;;;;;19.30;86.72;99687.59;4993172;28;20179;-58
2021/10/31 08:06:23;;;;;;;45.45;6.43;;;;;;;19.25;86.43;99679.34;4988789;28;20137;-59
2021/10/31 08:08:51;;;;;;;30.00;5.97;;;;;;;19.30;86.23;99694.09;4988851;28;20045;-64
2021/10/31 08:11:18;;;;;;;23.30;3.70;;;;;;;19.09;86.44;99660.31;4999410;28;20054;-64
2021/10/31 08:13:45;;;;;;;34.03;5.22;;;;;;;19.37;86.25;99701.97;4993531;28;20070;-63
2021/10/31 08:16:13;;;;;;;31.17;4.95;;;;;;;19.30;86.06;99670.63;4989951;28;20205;-63
2021/10/31 08:18:40;;;;;;;20.77;4.72;;;;;;;19.42;86.06;99690.41;4985739;28;20410;-63
2021/10/31 08:21:08;;;;;;;27.27;5.82;;;;;;;19.33;86.22;99682.03;4992222;28;20085;-63
2021/10/31 08:23:36;;;;;;;24.05;6.07;;;;;;;19.29;86.04;99683.13;4994398;28;20133;-63
2021/10/31 08:26:03;;;;;;;19.75;4.72;;;;;;;19.29;85.88;99685.97;4996754;28;20139;-63
2021/10/31 08:28:34;;;;;;;22.40;3.47;;;;;;;19.10;86.10;99678.94;4994952;28;20137;-64
2021/10/31 08:31:01;;;;;;;13.63;3.38;;;;;;;19.14;86.00;99694.06;5003685;28;20073;-64
2021/10/31 08:33:37;;;;;;;20.50;4.82;;;;;;;19.16;86.11;99696.50;4996804;28;20055;-64
2021/10/31 08:36:06;;;;;;;23.83;4.10;;;;;;;19.16;86.21;99688.84;4996130;28;20058;-64
2021/10/31 08:38:33;;;;;;;18.58;3.45;;;;;;;19.12;86.27;99693.56;4982169;28;20413;-64
2021/10/31 08:41:00;;;;;;;10.65;1.35;;;;;;;19.15;86.36;99675.88;4992128;28;20060;-64
2021/10/31 08:43:28;;;;;;;17.88;2.15;;;;;;;19.20;86.25;99696.63;4994595;28;20046;-64
2021/10/31 08:45:56;;;;;;;8.60;2.20;;;;;;;19.24;86.45;99711.69;4989948;28;20150;-64
2021/10/31 08:48:23;;;;;;;8.23;1.33;;;;;;;19.20;86.37;99707.94;4981692;28;20054;-65
2021/10/31 08:50:50;;;;;;;5.03;1.70;;;;;;;19.11;86.39;99699.56;4986961;28;20042;-64
2021/10/31 08:53:18;;;;;;;4.78;1.15;;;;;;;19.01;86.42;99712.25;4994044;28;20082;-64
2021/10/31 08:55:45;;;;;;;5.20;1.60;;;;;;;19.06;86.47;99740.28;4982982;28;20141;-64
2021/10/31 08:58:12;;;;;;;12.82;2.03;;;;;;;19.12;86.71;99721.06;4987472;28;20050;-64
2021/10/31 09:00:40;;;;;;;19.08;2.58;;;;;;;19.17;86.49;99732.94;4986815;28;20097;-63
2021/10/31 09:03:08;;;;;;;9.73;2.45;;;;;;;19.02;86.29;99698.91;4986300;28;20047;-63
2021/10/31 09:05:36;;;;;;;16.58;3.10;;;;;;;19.19;86.30;99729.75;4990767;28;20101;-63
2021/10/31 09:08:04;;;;;;;10.13;2.60;;;;;;;19.18;86.41;99750.75;4993411;28;20403;-63
2021/10/31 09:10:31;;;;;;;8.73;2.00;;;;;;;19.17;86.35;99735.75;4988947;28;20553;-63
2021/10/31 09:12:59;;;;;;;13.35;2.03;;;;;;;19.19;86.62;99715.59;4977020;28;20078;-63
2021/10/31 09:15:27;;;;;;;19.00;3.22;;;;;;;19.14;86.45;99719.53;4989733;28;20050;-64
2021/10/31 09:17:56;;;;;;;13.55;2.95;;;;;;;19.16;86.72;99716.31;4980752;28;20125;-63
2021/10/31 09:20:25;;;;;;;19.25;2.63;;;;;;;19.22;86.40;99731.88;4988429;28;20125;-63
2021/10/31 09:22:53;;;;;;;13.68;1.95;;;;;;;19.21;86.41;99740.72;4990657;28;20050;-63
2021/10/31 09:25:21;;;;;;;13.02;2.45;;;;;;;19.23;86.54;99729.84;4990094;28;20122;-63
2021/10/31 09:27:48;;;;;;;7.00;1.88;;;;;;;19.14;86.85;99741.31;4987182;28;20141;-64
2021/10/31 09:30:15;;;;;;;19.25;3.28;;;;;;;19.18;86.43;99747.94;4992330;28;20050;-64
2021/10/31 09:32:49;;;;;;;12.57;2.25;;;;;;;19.16;86.53;99736.13;4985533;28;20526;-68
2021/10/31 09:35:19;;;;;;;9.82;2.75;;;;;;;19.27;86.87;99747.78;4989297;28;20133;-67
2021/10/31 09:37:48;;;;;;;4.40;1.55;;;;;;;19.25;86.60;99769.94;4975865;28;20089;-62
2021/10/31 09:40:15;;;;;;;3.47;1.38;;;;;;;19.28;86.47;99763.56;4982345;28;20150;-62
2021/10/31 09:42:42;;;;;;;3.03;0.70;;;;;;;19.38;86.74;99777.22;4984315;28;20050;-62
2021/10/31 09:45:10;;;;;;;1.25;0.70;;;;;;;19.39;86.56;99781.72;4989947;28;20051;-62
2021/10/31 09:47:39;;;;;;;2.20;0.70;;;;;;;19.21;86.91;99774.66;4980231;28;20054;-63
2021/10/31 09:50:07;;;;;;;6.38;1.65;;;;;;;19.27;86.83;99761.94;4988926;28;20070;-62
2021/10/31 09:52:34;;;;;;;4.45;1.20;;;;;;;19.37;86.73;99770.72;4986306;28;20141;-62
2021/10/31 09:55:04;;;;;;;3.15;1.55;;;;;;;19.45;86.58;99768.94;4976527;28;20126;-61
2021/10/31 09:57:31;;;;;;;8.20;1.80;;;;;;;19.50;86.56;99776.38;4990255;28;20129;-71
2021/10/31 10:00:00;;;;;;;3.53;1.23;;;;;;;19.53;86.25;99776.47;4986175;28;20141;-64
2021/10/31 10:05:21;;;;;;;13.68;1.73;;;;;;;19.47;86.34;99788.41;4980800;28;20071;-63
2021/10/31 10:08:11;;;;;;;24.95;2.20;;;;;;;19.36;86.06;99782.44;4985515;28;20122;-60
2021/10/31 10:10:49;;;;;;;3.33;1.27;;;;;;;19.39;86.04;99808.00;4987280;28;20092;-66
2021/10/31 10:13:27;;;;;;;19.05;2.28;;;;;;;19.33;86.14;99795.28;4987675;28;20073;-62
2021/10/31 10:16:20;;;;;;;15.45;2.40;;;;;;;19.32;86.23;99804.97;4983864;28;20042;-63
2021/10/31 10:18:48;;;;;;;6.57;1.73;;;;;;;19.32;86.40;99812.66;4978705;28;20475;-62
2021/10/31 10:21:30;;;;;;;8.07;2.33;;;;;;;19.16;86.34;99809.72;4980256;28;20129;-62
2021/10/31 10:24:00;;;;;;;6.28;1.20;;;;;;;19.23;86.45;99820.44;4979576;28;20153;-61
2021/10/31 10:26:36;;;;;;;10.00;2.22;;;;;;;19.29;86.38;99816.19;4987545;28;20046;-61
2021/10/31 10:29:13;;;;;;;11.02;2.30;;;;;;;19.32;86.40;99832.47;4987925;28;20129;-61
2021/10/31 10:31:42;;;;;;;5.38;1.35;;;;;;;19.39;86.59;99829.84;4983892;28;20242;-61
2021/10/31 10:34:13;;;;;;;12.93;2.15;;;;;;;19.46;86.24;99830.06;4975476;28;20058;-61
2021/10/31 10:36:43;;;;;;;10.77;1.88;;;;;;;19.54;85.93;99812.09;4982133;28;20101;-62
2021/10/31 10:39:18;;;;;;;9.95;1.92;;;;;;;19.68;86.18;99834.38;4982176;28;20482;-61
2021/10/31 10:41:48;;;;;;;9.40;2.25;;;;;;;19.56;85.88;99798.41;4988393;28;20502;-62
2021/10/31 10:44:34;;;;;;;13.95;1.80;;;;;;;19.83;85.86;99844.97;4977947;28;20090;-62
2021/10/31 10:47:12;;;;;;;14.27;1.90;;;;;;;19.93;85.75;99840.78;4984438;28;20089;-62
2021/10/31 10:49:43;;;;;;;16.30;2.15;;;;;;;19.87;85.44;99828.88;4980157;28;20126;-62
2021/10/31 10:52:23;;;;;;;8.57;3.30;;;;;;;19.91;85.14;99826.16;4979335;28;20451;-62
2021/10/31 10:55:03;;;;;;;11.73;2.13;;;;;;;19.96;85.11;99848.53;4989103;28;22228;-62
2021/10/31 10:57:34;;;;;;;21.30;2.25;;;;;;;19.99;85.30;99850.66;4985870;28;20085;-62
2021/10/31 11:00:07;;;;;;;7.63;2.47;;;;;;;20.00;84.92;99843.81;4992103;28;20160;-62
2021/10/31 11:02:34;;;;;;;13.70;2.45;;;;;;;20.05;84.75;99843.56;4978212;28;20141;-62
2021/10/31 11:05:08;;;;;;;7.60;1.80;;;;;;;20.07;84.84;99852.53;4980152;28;20053;-61
2021/10/31 11:07:44;;;;;;;6.40;1.95;;;;;;;19.99;85.03;99845.00;4986803;28;20074;-61
2021/10/31 11:10:16;;;;;;;10.00;2.25;;;;;;;20.02;84.85;99849.94;4982368;28;20455;-62
2021/10/31 11:12:44;;;;;;;7.20;2.08;;;;;;;19.98;84.76;99849.03;4985974;28;20078;-62
2021/10/31 11:15:20;;;;;;;9.40;2.15;;;;;;;20.03;84.68;99856.44;4983093;28;20046;-62
2021/10/31 11:17:50;;;;;;;5.88;1.45;;;;;;;19.83;84.55;99859.13;4980424;28;20078;-62
2021/10/31 11:20:21;;;;;;;4.38;1.40;;;;;;;19.76;84.88;99872.22;4977465;28;20137;-63
2021/10/31 11:22:51;;;;;;;4.38;1.27;;;;;;;19.54;84.77;99863.06;4976400;28;20162;-62
2021/10/31 11:25:21;;;;;;;5.32;2.00;;;;;;;19.45;84.93;99887.84;4987395;28;20125;-62
2021/10/31 11:27:50;;;;;;;4.18;1.13;;;;;;;19.12;84.77;99869.03;4977978;28;20079;-62
2021/10/31 11:30:19;;;;;;;9.13;1.10;;;;;;;19.15;84.94;99893.81;4985374;28;20077;-63
2021/10/31 11:32:47;;;;;;;7.30;1.20;;;;;;;18.95;84.86;99891.91;4979004;28;20133;-63
2021/10/31 11:35:17;;;;;;;7.82;1.58;;;;;;;18.63;85.05;99869.00;4980071;28;20129;-63
2021/10/31 11:37:56;;;;;;;10.00;1.48;;;;;;;18.80;85.33;99889.78;4979738;28;20131;-63
2021/10/31 11:40:32;;;;;;;3.93;1.00;;;;;;;18.71;85.28;99898.34;4975344;28;20486;-63